createdAt,value
2022-12-29T00:00:21.523Z,983.88
2022-12-29T00:01:20.470Z,983.89
2022-12-29T00:02:20.503Z,983.94
2022-12-29T00:03:20.557Z,983.83
2022-12-29T00:04:20.460Z,983.87
2022-12-29T00:05:20.471Z,983.84
2022-12-29T00:06:20.448Z,983.84
2022-12-29T00:07:20.459Z,983.87
2022-12-29T00:08:20.437Z,983.79
2022-12-29T00:09:20.412Z,983.84
2022-12-29T00:10:20.406Z,983.79
2022-12-29T00:11:20.404Z,983.79
2022-12-29T00:12:20.417Z,983.76
2022-12-29T00:13:20.508Z,983.77
2022-12-29T00:14:25.877Z,983.78
2022-12-29T00:15:22.399Z,983.75
2022-12-29T00:16:20.515Z,983.68
2022-12-29T00:17:20.407Z,983.66
2022-12-29T00:18:20.409Z,983.76
2022-12-29T00:19:20.385Z,983.80
2022-12-29T00:20:20.396Z,983.83
2022-12-29T00:21:20.362Z,983.78
2022-12-29T00:22:20.361Z,983.72
2022-12-29T00:23:20.348Z,983.70
2022-12-29T00:24:20.354Z,983.69
2022-12-29T00:25:20.372Z,983.76
2022-12-29T00:26:20.331Z,983.72
2022-12-29T00:27:20.326Z,983.72
2022-12-29T00:28:20.344Z,983.71
2022-12-29T00:29:20.372Z,983.68
2022-12-29T00:30:20.362Z,983.67
2022-12-29T00:31:20.391Z,983.71
2022-12-29T00:32:20.315Z,983.71
2022-12-29T00:33:20.488Z,983.75
2022-12-29T00:34:20.341Z,983.66
2022-12-29T00:35:20.353Z,983.69
2022-12-29T00:36:20.352Z,983.62
2022-12-29T00:37:20.863Z,983.66
2022-12-29T00:38:20.284Z,983.62
2022-12-29T00:39:20.389Z,983.67
2022-12-29T00:40:20.273Z,983.60
2022-12-29T00:41:20.558Z,983.62
2022-12-29T00:42:20.361Z,983.63
2022-12-29T00:43:20.326Z,983.68
2022-12-29T00:44:20.259Z,983.65
2022-12-29T00:45:20.278Z,983.65
2022-12-29T00:46:20.524Z,983.59
2022-12-29T00:47:20.308Z,983.61
2022-12-29T00:48:20.235Z,983.65
2022-12-29T00:49:20.245Z,983.66
2022-12-29T00:50:20.429Z,983.63
2022-12-29T00:51:20.260Z,983.59
2022-12-29T00:52:20.240Z,983.58
2022-12-29T00:53:20.219Z,983.63
2022-12-29T00:54:20.215Z,983.64
2022-12-29T00:55:20.220Z,983.70
2022-12-29T00:56:20.217Z,983.68
2022-12-29T00:57:20.209Z,983.63
2022-12-29T00:58:20.190Z,983.57
2022-12-29T00:59:20.206Z,983.51
2022-12-29T01:00:20.177Z,983.53
2022-12-29T01:01:20.235Z,983.45
2022-12-29T01:02:20.327Z,983.61
2022-12-29T01:03:20.274Z,983.57
2022-12-29T01:04:20.202Z,983.56
2022-12-29T01:05:20.176Z,983.53
2022-12-29T01:06:20.274Z,983.55
2022-12-29T01:07:20.157Z,983.54
2022-12-29T01:08:20.168Z,983.58
2022-12-29T01:09:20.343Z,983.58
2022-12-29T01:10:20.173Z,983.42
2022-12-29T01:11:20.156Z,983.35
2022-12-29T01:12:20.151Z,983.28
2022-12-29T01:13:20.110Z,983.25
2022-12-29T01:14:20.208Z,983.28
2022-12-29T01:15:20.135Z,983.28
2022-12-29T01:16:20.279Z,983.26
2022-12-29T01:17:20.105Z,983.21
2022-12-29T01:18:20.105Z,983.17
2022-12-29T01:19:20.093Z,983.20
2022-12-29T01:20:20.142Z,983.13
2022-12-29T01:21:20.068Z,983.17
2022-12-29T01:22:20.098Z,983.20
2022-12-29T01:23:20.082Z,983.13
2022-12-29T01:24:20.072Z,983.17
2022-12-29T01:25:20.095Z,983.14
2022-12-29T01:26:20.051Z,983.17
2022-12-29T01:27:20.057Z,983.00
2022-12-29T01:28:25.782Z,982.97
2022-12-29T01:29:22.044Z,982.89
2022-12-29T01:30:20.065Z,982.98
2022-12-29T01:31:20.101Z,982.95
2022-12-29T01:32:20.023Z,982.97
2022-12-29T01:33:20.039Z,982.97
2022-12-29T01:34:21.078Z,982.93
2022-12-29T01:35:20.003Z,982.94
2022-12-29T01:36:20.005Z,983.01
2022-12-29T01:37:20.001Z,983.03
2022-12-29T01:38:20.039Z,982.92
2022-12-29T01:39:19.999Z,983.02
2022-12-29T01:40:20.008Z,982.99
2022-12-29T01:41:20.007Z,983.03
2022-12-29T01:42:20.040Z,983.00
2022-12-29T01:43:19.983Z,983.01
2022-12-29T01:44:19.993Z,983.04
2022-12-29T01:45:19.969Z,982.92
2022-12-29T01:46:20.081Z,982.98
2022-12-29T01:47:19.964Z,982.97
2022-12-29T01:48:21.017Z,982.94
2022-12-29T01:49:20.000Z,982.86
2022-12-29T01:50:19.990Z,982.85
2022-12-29T01:51:19.952Z,982.88
2022-12-29T01:52:19.975Z,982.89
2022-12-29T01:53:19.916Z,982.96
2022-12-29T01:54:19.941Z,982.94
2022-12-29T01:55:19.949Z,983.00
2022-12-29T01:56:19.919Z,983.04
2022-12-29T01:57:19.885Z,982.99
2022-12-29T01:58:19.909Z,982.99
2022-12-29T01:59:19.919Z,983.03
2022-12-29T02:00:19.968Z,982.99
2022-12-29T02:01:20.030Z,982.98
2022-12-29T02:02:19.923Z,982.98
2022-12-29T02:03:20.009Z,982.98
2022-12-29T02:04:19.866Z,982.94
2022-12-29T02:05:19.914Z,982.95
2022-12-29T02:06:19.881Z,982.92
2022-12-29T02:07:19.874Z,982.91
2022-12-29T02:08:19.857Z,982.91
2022-12-29T02:09:19.855Z,982.82
2022-12-29T02:10:19.849Z,982.83
2022-12-29T02:11:19.861Z,982.81
2022-12-29T02:12:19.867Z,982.91
2022-12-29T02:13:19.910Z,982.87
2022-12-29T02:14:19.809Z,982.85
2022-12-29T02:15:19.828Z,982.85
2022-12-29T02:16:19.893Z,982.92
2022-12-29T02:17:19.875Z,982.89
2022-12-29T02:18:19.852Z,982.96
2022-12-29T02:19:19.799Z,982.92
2022-12-29T02:20:19.794Z,982.92
2022-12-29T02:21:19.791Z,982.94
2022-12-29T02:22:19.788Z,982.87
2022-12-29T02:23:19.789Z,982.89
2022-12-29T02:24:19.809Z,982.86
2022-12-29T02:25:19.825Z,982.89
2022-12-29T02:26:19.789Z,982.90
2022-12-29T02:27:19.786Z,982.94
2022-12-29T02:28:19.787Z,982.94
2022-12-29T02:29:19.832Z,982.89
2022-12-29T02:30:19.759Z,982.90
2022-12-29T02:31:19.748Z,982.93
2022-12-29T02:32:19.756Z,982.89
2022-12-29T02:33:19.752Z,982.91
2022-12-29T02:34:19.738Z,982.92
2022-12-29T02:35:19.708Z,982.83
2022-12-29T02:36:20.673Z,982.82
2022-12-29T02:37:19.735Z,982.90
2022-12-29T02:38:19.700Z,982.86
2022-12-29T02:39:19.722Z,982.81
2022-12-29T02:40:19.692Z,982.78
2022-12-29T02:41:19.753Z,982.76
2022-12-29T02:42:19.814Z,982.75
2022-12-29T02:43:19.674Z,982.72
2022-12-29T02:44:19.761Z,982.73
2022-12-29T02:45:19.659Z,982.57
2022-12-29T02:46:19.700Z,982.63
2022-12-29T02:47:19.683Z,982.67
2022-12-29T02:48:19.644Z,982.61
2022-12-29T02:49:19.773Z,982.58
2022-12-29T02:50:19.650Z,982.61
2022-12-29T02:51:19.653Z,982.57
2022-12-29T02:52:19.614Z,982.54
2022-12-29T02:53:19.615Z,982.53
2022-12-29T02:54:19.649Z,982.50
2022-12-29T02:55:19.639Z,982.57
2022-12-29T02:56:19.602Z,982.45
2022-12-29T02:57:19.595Z,982.47
2022-12-29T02:58:19.580Z,982.58
2022-12-29T02:59:19.578Z,982.56
2022-12-29T03:00:19.605Z,982.49
2022-12-29T03:01:20.026Z,982.54
2022-12-29T03:02:19.743Z,982.51
2022-12-29T03:03:19.656Z,982.41
2022-12-29T03:04:19.575Z,982.41
2022-12-29T03:05:19.586Z,982.42
2022-12-29T03:06:19.561Z,982.42
2022-12-29T03:07:19.524Z,982.47
2022-12-29T03:08:19.537Z,982.45
2022-12-29T03:09:19.581Z,982.36
2022-12-29T03:10:19.536Z,982.38
2022-12-29T03:11:19.556Z,982.36
2022-12-29T03:12:19.501Z,982.39
2022-12-29T03:13:19.499Z,982.28
2022-12-29T03:14:19.493Z,982.27
2022-12-29T03:15:19.487Z,982.39
2022-12-29T03:16:19.556Z,982.45
2022-12-29T03:17:19.486Z,982.41
2022-12-29T03:18:19.469Z,982.31
2022-12-29T03:19:19.487Z,982.37
2022-12-29T03:20:19.461Z,982.44
2022-12-29T03:21:19.534Z,982.35
2022-12-29T03:22:19.496Z,982.38
2022-12-29T03:23:19.467Z,982.47
2022-12-29T03:24:19.553Z,982.43
2022-12-29T03:25:19.536Z,982.44
2022-12-29T03:26:19.473Z,982.49
2022-12-29T03:27:19.445Z,982.37
2022-12-29T03:28:19.469Z,982.39
2022-12-29T03:29:19.452Z,982.36
2022-12-29T03:30:19.419Z,982.30
2022-12-29T03:31:19.468Z,982.32
2022-12-29T03:32:19.450Z,982.11
2022-12-29T03:33:19.403Z,982.21
2022-12-29T03:34:19.406Z,982.15
2022-12-29T03:35:19.394Z,982.21
2022-12-29T03:36:19.400Z,982.24
2022-12-29T03:37:19.431Z,982.16
2022-12-29T03:38:19.395Z,982.14
2022-12-29T03:39:19.373Z,982.17
2022-12-29T03:40:19.364Z,982.20
2022-12-29T03:41:19.343Z,982.15
2022-12-29T03:42:19.373Z,982.20
2022-12-29T03:43:19.389Z,982.19
2022-12-29T03:44:19.329Z,982.24
2022-12-29T03:45:19.363Z,982.21
2022-12-29T03:46:19.358Z,982.13
2022-12-29T03:47:19.305Z,982.25
2022-12-29T03:48:19.311Z,982.21
2022-12-29T03:49:19.323Z,982.28
2022-12-29T03:50:19.344Z,982.21
2022-12-29T03:51:19.301Z,982.23
2022-12-29T03:52:19.278Z,982.24
2022-12-29T03:53:19.287Z,982.26
2022-12-29T03:54:19.280Z,982.33
2022-12-29T03:55:19.378Z,982.28
2022-12-29T03:56:19.262Z,982.20
2022-12-29T03:57:19.250Z,982.22
2022-12-29T03:58:19.263Z,982.25
2022-12-29T03:59:19.251Z,982.08
2022-12-29T04:00:19.271Z,982.02
2022-12-29T04:01:19.351Z,982.12
2022-12-29T04:02:19.364Z,982.14
2022-12-29T04:03:19.271Z,982.19
2022-12-29T04:04:19.227Z,982.22
2022-12-29T04:05:19.264Z,982.21
2022-12-29T04:06:19.210Z,982.17
2022-12-29T04:07:19.201Z,982.20
2022-12-29T04:08:19.212Z,982.27
2022-12-29T04:09:19.210Z,982.18
2022-12-29T04:10:19.239Z,982.17
2022-12-29T04:11:19.185Z,982.28
2022-12-29T04:12:19.170Z,982.23
2022-12-29T04:13:19.194Z,982.13
2022-12-29T04:14:19.167Z,982.18
2022-12-29T04:15:19.185Z,982.14
2022-12-29T04:16:19.285Z,982.08
2022-12-29T04:17:19.168Z,982.09
2022-12-29T04:18:19.168Z,981.97
2022-12-29T04:19:19.143Z,982.00
2022-12-29T04:20:19.139Z,982.04
2022-12-29T04:21:19.166Z,982.14
2022-12-29T04:22:19.137Z,981.98
2022-12-29T04:23:19.123Z,982.02
2022-12-29T04:24:19.135Z,982.18
2022-12-29T04:25:19.104Z,982.04
2022-12-29T04:26:19.128Z,982.12
2022-12-29T04:27:19.139Z,982.17
2022-12-29T04:28:19.138Z,982.11
2022-12-29T04:29:19.086Z,982.08
2022-12-29T04:30:19.097Z,982.06
2022-12-29T04:31:19.230Z,982.17
2022-12-29T04:32:19.110Z,982.10
2022-12-29T04:33:19.088Z,982.05
2022-12-29T04:34:19.064Z,982.06
2022-12-29T04:35:19.070Z,981.99
2022-12-29T04:36:19.049Z,981.83
2022-12-29T04:37:19.113Z,982.00
2022-12-29T04:38:19.053Z,982.00
2022-12-29T04:39:19.052Z,982.02
2022-12-29T04:40:19.052Z,981.96
2022-12-29T04:41:19.035Z,981.90
2022-12-29T04:42:19.064Z,981.95
2022-12-29T04:43:19.025Z,981.96
2022-12-29T04:44:19.019Z,981.98
2022-12-29T04:45:19.011Z,981.89
2022-12-29T04:46:19.057Z,981.84
2022-12-29T04:47:18.996Z,981.92
2022-12-29T04:48:19.016Z,981.88
2022-12-29T04:49:19.024Z,981.86
2022-12-29T04:50:18.978Z,981.84
2022-12-29T04:51:18.988Z,981.86
2022-12-29T04:52:20.000Z,981.78
2022-12-29T04:53:18.954Z,981.85
2022-12-29T04:54:18.999Z,981.82
2022-12-29T04:55:18.966Z,981.76
2022-12-29T04:56:18.979Z,981.98
2022-12-29T04:57:18.951Z,981.98
2022-12-29T04:58:22.594Z,982.00
2022-12-29T04:59:19.978Z,981.97
2022-12-29T05:00:18.959Z,981.82
2022-12-29T05:01:18.969Z,981.99
2022-12-29T05:02:19.026Z,982.00
2022-12-29T05:03:19.107Z,982.06
2022-12-29T05:04:18.939Z,981.84
2022-12-29T05:05:18.945Z,981.87
2022-12-29T05:06:18.890Z,981.97
2022-12-29T05:07:18.893Z,981.90
2022-12-29T05:08:24.672Z,981.89
2022-12-29T05:09:20.879Z,981.91
2022-12-29T05:10:18.899Z,981.96
2022-12-29T05:11:18.931Z,981.92
2022-12-29T05:12:18.874Z,981.94
2022-12-29T05:13:18.875Z,982.00
2022-12-29T05:14:18.892Z,981.88
2022-12-29T05:15:18.874Z,981.93
2022-12-29T05:16:18.885Z,981.95
2022-12-29T05:17:18.842Z,981.90
2022-12-29T05:18:19.900Z,981.89
2022-12-29T05:19:19.499Z,981.93
2022-12-29T05:20:18.851Z,981.98
2022-12-29T05:21:18.810Z,981.89
2022-12-29T05:22:18.825Z,981.90
2022-12-29T05:23:18.839Z,981.95
2022-12-29T05:24:18.806Z,981.94
2022-12-29T05:25:18.827Z,981.93
2022-12-29T05:26:18.783Z,982.01
2022-12-29T05:27:18.888Z,981.85
2022-12-29T05:28:18.781Z,982.00
2022-12-29T05:29:18.783Z,981.98
2022-12-29T05:30:18.831Z,981.99
2022-12-29T05:31:18.831Z,981.96
2022-12-29T05:32:18.790Z,981.94
2022-12-29T05:33:18.758Z,981.92
2022-12-29T05:34:18.736Z,981.92
2022-12-29T05:35:18.776Z,981.96
2022-12-29T05:36:18.724Z,981.97
2022-12-29T05:37:18.708Z,981.97
2022-12-29T05:38:18.711Z,981.86
2022-12-29T05:39:18.739Z,981.96
2022-12-29T05:40:18.737Z,981.99
2022-12-29T05:41:18.748Z,981.96
2022-12-29T05:42:18.712Z,981.99
2022-12-29T05:43:18.810Z,982.01
2022-12-29T05:44:18.696Z,981.96
2022-12-29T05:45:18.686Z,982.14
2022-12-29T05:46:18.736Z,982.22
2022-12-29T05:47:18.687Z,982.11
2022-12-29T05:48:18.706Z,982.14
2022-12-29T05:49:18.705Z,982.10
2022-12-29T05:50:18.640Z,982.00
2022-12-29T05:51:18.682Z,981.94
2022-12-29T05:52:18.634Z,981.91
2022-12-29T05:53:18.648Z,981.88
2022-12-29T05:54:18.668Z,981.89
2022-12-29T05:55:18.695Z,981.92
2022-12-29T05:56:18.619Z,981.81
2022-12-29T05:57:18.629Z,981.67
2022-12-29T05:58:18.618Z,981.77
2022-12-29T05:59:18.637Z,981.76
2022-12-29T06:00:18.625Z,981.66
2022-12-29T06:01:18.732Z,981.82
2022-12-29T06:02:18.796Z,981.78
2022-12-29T06:03:18.762Z,981.84
2022-12-29T06:04:18.588Z,981.81
2022-12-29T06:05:18.564Z,981.82
2022-12-29T06:06:18.572Z,981.89
2022-12-29T06:07:18.558Z,981.96
2022-12-29T06:08:18.559Z,982.06
2022-12-29T06:09:18.587Z,981.82
2022-12-29T06:10:18.542Z,981.87
2022-12-29T06:11:18.572Z,982.09
2022-12-29T06:12:18.536Z,982.02
2022-12-29T06:13:18.522Z,982.08
2022-12-29T06:14:18.559Z,981.99
2022-12-29T06:15:18.561Z,982.04
2022-12-29T06:16:18.563Z,982.04
2022-12-29T06:17:18.544Z,981.89
2022-12-29T06:18:20.261Z,982.02
2022-12-29T06:19:19.497Z,982.03
2022-12-29T06:20:18.491Z,982.03
2022-12-29T06:21:18.505Z,981.98
2022-12-29T06:22:18.498Z,981.98
2022-12-29T06:23:18.484Z,981.97
2022-12-29T06:24:18.472Z,981.99
2022-12-29T06:25:18.516Z,981.99
2022-12-29T06:26:18.479Z,982.06
2022-12-29T06:27:18.466Z,982.03
2022-12-29T06:28:18.467Z,981.90
2022-12-29T06:29:18.503Z,982.01
2022-12-29T06:30:18.482Z,982.07
2022-12-29T06:31:18.508Z,982.00
2022-12-29T06:32:18.440Z,982.06
2022-12-29T06:33:18.470Z,982.11
2022-12-29T06:34:18.420Z,981.98
2022-12-29T06:35:18.435Z,981.98
2022-12-29T06:36:18.505Z,981.91
2022-12-29T06:37:18.425Z,981.86
2022-12-29T06:38:18.433Z,981.77
2022-12-29T06:39:18.410Z,981.76
2022-12-29T06:40:18.416Z,981.98
2022-12-29T06:41:18.406Z,981.84
2022-12-29T06:42:18.476Z,981.81
2022-12-29T06:43:18.421Z,981.82
2022-12-29T06:44:18.386Z,981.85
2022-12-29T06:45:18.402Z,981.79
2022-12-29T06:46:18.404Z,981.89
2022-12-29T06:47:18.397Z,981.88
2022-12-29T06:48:18.370Z,981.89
2022-12-29T06:49:18.377Z,981.85
2022-12-29T06:50:18.340Z,981.86
2022-12-29T06:51:18.336Z,981.89
2022-12-29T06:52:18.357Z,981.89
2022-12-29T06:53:18.324Z,981.88
2022-12-29T06:54:18.357Z,981.78
2022-12-29T06:55:18.324Z,981.83
2022-12-29T06:56:18.359Z,981.86
2022-12-29T06:57:18.309Z,981.80
2022-12-29T06:58:18.318Z,981.82
2022-12-29T06:59:18.307Z,981.81
2022-12-29T07:00:22.773Z,981.77
2022-12-29T07:01:19.461Z,981.91
2022-12-29T07:02:18.395Z,981.81
2022-12-29T07:03:18.407Z,981.87
2022-12-29T07:04:18.269Z,981.94
2022-12-29T07:05:18.324Z,981.94
2022-12-29T07:06:18.251Z,981.95
2022-12-29T07:07:18.257Z,981.99
2022-12-29T07:08:18.312Z,981.97
2022-12-29T07:09:18.235Z,982.04
2022-12-29T07:10:18.230Z,981.98
2022-12-29T07:11:18.280Z,981.97
2022-12-29T07:12:18.233Z,981.98
2022-12-29T07:13:18.262Z,981.94
2022-12-29T07:14:18.213Z,982.02
2022-12-29T07:15:18.240Z,981.95
2022-12-29T07:16:18.234Z,981.92
2022-12-29T07:17:18.205Z,982.00
2022-12-29T07:18:18.204Z,981.97
2022-12-29T07:19:18.207Z,982.04
2022-12-29T07:20:23.209Z,982.01
2022-12-29T07:21:20.187Z,982.02
2022-12-29T07:22:18.175Z,982.03
2022-12-29T07:23:18.164Z,982.05
2022-12-29T07:24:18.210Z,982.08
2022-12-29T07:25:18.151Z,981.98
2022-12-29T07:26:18.167Z,981.88
2022-12-29T07:27:18.140Z,981.92
2022-12-29T07:28:18.193Z,981.97
2022-12-29T07:29:18.160Z,981.95
2022-12-29T07:30:19.131Z,981.90
2022-12-29T07:31:18.212Z,982.03
2022-12-29T07:32:18.224Z,981.86
2022-12-29T07:33:19.140Z,982.05
2022-12-29T07:34:18.152Z,981.94
2022-12-29T07:35:18.131Z,981.90
2022-12-29T07:36:18.139Z,982.08
2022-12-29T07:37:18.100Z,981.99
2022-12-29T07:38:18.129Z,982.11
2022-12-29T07:39:18.108Z,982.00
2022-12-29T07:40:18.120Z,982.12
2022-12-29T07:41:18.119Z,982.10
2022-12-29T07:42:18.082Z,982.11
2022-12-29T07:43:18.060Z,982.10
2022-12-29T07:44:18.069Z,982.03
2022-12-29T07:45:18.046Z,981.98
2022-12-29T07:46:56.437Z,981.88
2022-12-29T07:47:20.076Z,981.99
2022-12-29T07:48:18.037Z,982.02
2022-12-29T07:49:18.027Z,982.02
2022-12-29T07:50:19.076Z,982.05
2022-12-29T07:51:18.009Z,982.03
2022-12-29T07:52:18.057Z,982.02
2022-12-29T07:53:18.049Z,982.04
2022-12-29T07:54:17.996Z,982.10
2022-12-29T07:55:18.023Z,982.09
2022-12-29T07:56:17.989Z,982.15
2022-12-29T07:57:17.999Z,982.03
2022-12-29T07:58:18.055Z,981.96
2022-12-29T07:59:17.980Z,982.00
2022-12-29T08:00:17.999Z,982.10
2022-12-29T08:01:18.157Z,982.11
2022-12-29T08:02:18.115Z,982.09
2022-12-29T08:03:18.000Z,982.14
2022-12-29T08:04:18.012Z,982.13
2022-12-29T08:05:18.087Z,982.11
2022-12-29T08:06:17.946Z,982.15
2022-12-29T08:07:17.967Z,982.01
2022-12-29T08:08:17.912Z,982.09
2022-12-29T08:09:22.427Z,982.06
2022-12-29T08:10:19.938Z,982.16
2022-12-29T08:11:17.905Z,982.24
2022-12-29T08:12:17.924Z,982.18
2022-12-29T08:13:18.014Z,982.14
2022-12-29T08:14:17.901Z,982.21
2022-12-29T08:15:17.885Z,982.20
2022-12-29T08:16:18.326Z,982.23
2022-12-29T08:17:17.879Z,982.12
2022-12-29T08:18:17.880Z,982.22
2022-12-29T08:19:17.884Z,982.19
2022-12-29T08:20:17.888Z,982.09
2022-12-29T08:21:18.002Z,982.20
2022-12-29T08:22:17.883Z,982.25
2022-12-29T08:23:17.867Z,982.17
2022-12-29T08:24:17.844Z,982.15
2022-12-29T08:25:17.870Z,982.23
2022-12-29T08:26:17.904Z,982.23
2022-12-29T08:27:20.665Z,982.17
2022-12-29T08:28:18.818Z,982.16
2022-12-29T08:29:17.827Z,982.26
2022-12-29T08:30:17.815Z,982.27
2022-12-29T08:31:17.853Z,982.25
2022-12-29T08:32:17.786Z,982.14
2022-12-29T08:33:17.783Z,982.37
2022-12-29T08:34:17.816Z,982.35
2022-12-29T08:35:17.798Z,982.47
2022-12-29T08:36:17.917Z,982.61
2022-12-29T08:37:17.782Z,982.51
2022-12-29T08:38:17.751Z,982.54
2022-12-29T08:39:17.731Z,982.50
2022-12-29T08:40:17.757Z,982.55
2022-12-29T08:41:17.743Z,982.65
2022-12-29T08:42:17.757Z,982.65
2022-12-29T08:43:18.714Z,982.86
2022-12-29T08:44:18.755Z,982.78
2022-12-29T08:45:17.807Z,982.92
2022-12-29T08:46:17.838Z,983.02
2022-12-29T08:47:17.697Z,983.16
2022-12-29T08:48:17.733Z,983.00
2022-12-29T08:49:17.753Z,983.06
2022-12-29T08:50:17.696Z,983.03
2022-12-29T08:51:22.834Z,982.91
2022-12-29T08:52:19.684Z,982.94
2022-12-29T08:53:17.770Z,982.89
2022-12-29T08:54:17.691Z,983.01
2022-12-29T08:55:17.677Z,982.93
2022-12-29T08:56:17.656Z,982.92
2022-12-29T08:57:17.762Z,982.91
2022-12-29T08:58:17.683Z,982.96
2022-12-29T08:59:17.654Z,983.02
2022-12-29T09:00:17.632Z,983.00
2022-12-29T09:01:17.727Z,983.04
2022-12-29T09:02:24.363Z,982.87
2022-12-29T09:03:37.823Z,982.86
2022-12-29T09:04:19.951Z,982.99
2022-12-29T09:05:17.680Z,983.03
2022-12-29T09:06:18.643Z,983.00
2022-12-29T09:07:17.643Z,982.94
2022-12-29T09:08:22.325Z,982.87
2022-12-29T09:09:19.610Z,982.76
2022-12-29T09:10:17.593Z,982.74
2022-12-29T09:11:17.572Z,982.67
2022-12-29T09:12:17.610Z,982.68
2022-12-29T09:13:17.630Z,982.74
2022-12-29T09:14:17.603Z,982.80
2022-12-29T09:15:17.537Z,982.88
2022-12-29T09:16:17.649Z,982.87
2022-12-29T09:17:17.660Z,982.85
2022-12-29T09:18:20.881Z,982.81
2022-12-29T09:19:18.539Z,982.79
2022-12-29T09:20:17.530Z,982.78
2022-12-29T09:21:17.541Z,982.88
2022-12-29T09:22:17.554Z,982.80
2022-12-29T09:23:17.563Z,982.78
2022-12-29T09:24:17.516Z,982.74
2022-12-29T09:25:17.574Z,982.85
2022-12-29T09:26:17.498Z,982.96
2022-12-29T09:27:17.496Z,982.95
2022-12-29T09:28:17.521Z,983.01
2022-12-29T09:29:17.482Z,983.09
2022-12-29T09:30:17.517Z,983.10
2022-12-29T09:31:17.569Z,983.17
2022-12-29T09:32:18.958Z,983.17
2022-12-29T09:33:18.480Z,983.01
2022-12-29T09:34:17.606Z,983.15
2022-12-29T09:35:17.499Z,983.17
2022-12-29T09:36:17.456Z,983.28
2022-12-29T09:37:17.436Z,983.27
2022-12-29T09:38:17.430Z,983.22
2022-12-29T09:39:17.465Z,983.26
2022-12-29T09:40:17.451Z,983.25
2022-12-29T09:41:17.418Z,983.26
2022-12-29T09:42:17.413Z,983.24
2022-12-29T09:43:17.391Z,983.15
2022-12-29T09:44:17.426Z,983.12
2022-12-29T09:45:17.422Z,983.23
2022-12-29T09:46:17.402Z,983.20
2022-12-29T09:47:17.395Z,983.27
2022-12-29T09:48:17.378Z,983.24
2022-12-29T09:49:17.412Z,983.30
2022-12-29T09:50:17.404Z,983.27
2022-12-29T09:51:17.375Z,983.19
2022-12-29T09:52:17.363Z,983.19
2022-12-29T09:53:17.333Z,983.11
2022-12-29T09:54:17.356Z,983.07
2022-12-29T09:55:17.338Z,983.19
2022-12-29T09:56:17.353Z,983.19
2022-12-29T09:57:17.351Z,983.22
2022-12-29T09:58:17.339Z,983.11
2022-12-29T09:59:17.345Z,983.22
2022-12-29T10:00:17.313Z,983.09
2022-12-29T10:01:17.545Z,983.27
2022-12-29T10:02:17.423Z,983.27
2022-12-29T10:03:17.473Z,983.27
2022-12-29T10:04:17.309Z,983.29
2022-12-29T10:05:17.277Z,983.32
2022-12-29T10:06:17.295Z,983.27
2022-12-29T10:07:29.481Z,983.28
2022-12-29T10:08:19.260Z,983.28
2022-12-29T10:09:17.293Z,983.32
2022-12-29T10:10:17.424Z,983.29
2022-12-29T10:11:17.556Z,983.22
2022-12-29T10:12:17.234Z,983.28
2022-12-29T10:13:17.232Z,983.29
2022-12-29T10:14:17.219Z,983.36
2022-12-29T10:15:17.224Z,983.24
2022-12-29T10:16:17.267Z,983.32
2022-12-29T10:17:17.191Z,983.28
2022-12-29T10:18:17.181Z,983.26
2022-12-29T10:19:17.207Z,983.26
2022-12-29T10:20:17.199Z,983.28
2022-12-29T10:21:17.199Z,983.26
2022-12-29T10:22:17.164Z,983.37
2022-12-29T10:23:17.179Z,983.29
2022-12-29T10:24:17.241Z,983.35
2022-12-29T10:25:17.187Z,983.35
2022-12-29T10:26:17.143Z,983.35
2022-12-29T10:27:17.133Z,983.45
2022-12-29T10:28:17.120Z,983.42
2022-12-29T10:29:17.136Z,983.42
2022-12-29T10:30:17.119Z,983.25
2022-12-29T10:31:17.149Z,983.42
2022-12-29T10:32:17.131Z,983.42
2022-12-29T10:33:17.095Z,983.28
2022-12-29T10:34:17.117Z,983.37
2022-12-29T10:35:17.107Z,983.39
2022-12-29T10:36:17.065Z,983.31
2022-12-29T10:37:17.089Z,983.31
2022-12-29T10:38:17.083Z,983.21
2022-12-29T10:39:17.067Z,983.44
2022-12-29T10:40:17.113Z,983.32
2022-12-29T10:41:17.085Z,983.44
2022-12-29T10:42:17.124Z,983.43
2022-12-29T10:43:21.131Z,983.33
2022-12-29T10:44:18.047Z,983.38
2022-12-29T10:45:17.033Z,983.36
2022-12-29T10:46:17.104Z,983.49
2022-12-29T10:47:17.025Z,983.34
2022-12-29T10:48:16.998Z,983.47
2022-12-29T10:49:21.584Z,983.43
2022-12-29T10:50:18.986Z,983.43
2022-12-29T10:51:16.969Z,983.33
2022-12-29T10:52:17.014Z,983.47
2022-12-29T10:53:16.966Z,983.51
2022-12-29T10:54:16.960Z,983.51
2022-12-29T10:55:16.967Z,983.44
2022-12-29T10:56:17.080Z,983.56
2022-12-29T10:57:16.964Z,983.60
2022-12-29T10:58:16.959Z,983.46
2022-12-29T10:59:16.969Z,983.57
2022-12-29T11:00:17.048Z,983.55
2022-12-29T11:01:16.970Z,983.52
2022-12-29T11:02:17.061Z,983.45
2022-12-29T11:03:16.962Z,983.50
2022-12-29T11:04:16.894Z,983.57
2022-12-29T11:05:16.924Z,983.49
2022-12-29T11:06:16.884Z,983.51
2022-12-29T11:07:18.122Z,983.49
2022-12-29T11:08:16.856Z,983.52
2022-12-29T11:09:16.905Z,983.48
2022-12-29T11:10:16.908Z,983.36
2022-12-29T11:11:16.845Z,983.51
2022-12-29T11:12:16.876Z,983.52
2022-12-29T11:13:16.868Z,983.45
2022-12-29T11:14:16.868Z,983.51
2022-12-29T11:15:16.843Z,983.45
2022-12-29T11:16:16.939Z,983.47
2022-12-29T11:17:16.811Z,983.45
2022-12-29T11:18:16.807Z,983.46
2022-12-29T11:19:16.866Z,983.45
2022-12-29T11:20:16.777Z,983.50
2022-12-29T11:21:17.806Z,983.44
2022-12-29T11:22:16.795Z,983.50
2022-12-29T11:23:16.770Z,983.51
2022-12-29T11:24:16.815Z,983.44
2022-12-29T11:25:16.943Z,983.27
2022-12-29T11:26:16.760Z,983.47
2022-12-29T11:27:16.791Z,983.47
2022-12-29T11:28:16.762Z,983.48
2022-12-29T11:29:16.775Z,983.54
2022-12-29T11:30:16.763Z,983.45
2022-12-29T11:31:16.909Z,983.48
2022-12-29T11:32:16.828Z,983.47
2022-12-29T11:33:16.716Z,983.53
2022-12-29T11:34:16.715Z,983.50
2022-12-29T11:35:16.716Z,983.52
2022-12-29T11:36:16.727Z,983.26
2022-12-29T11:37:16.696Z,983.45
2022-12-29T11:38:16.701Z,983.44
2022-12-29T11:39:16.681Z,983.39
2022-12-29T11:40:16.717Z,983.46
2022-12-29T11:41:16.833Z,983.37
2022-12-29T11:42:16.659Z,983.36
2022-12-29T11:43:16.677Z,983.40
2022-12-29T11:44:16.643Z,983.23
2022-12-29T11:45:16.694Z,983.32
2022-12-29T11:46:16.703Z,983.27
2022-12-29T11:47:16.612Z,983.33
2022-12-29T11:48:16.631Z,983.28
2022-12-29T11:49:16.613Z,983.29
2022-12-29T11:50:16.773Z,983.30
2022-12-29T11:51:20.410Z,983.24
2022-12-29T11:52:18.595Z,983.39
2022-12-29T11:53:16.600Z,983.43
2022-12-29T11:54:16.568Z,983.51
2022-12-29T11:55:16.568Z,983.45
2022-12-29T11:56:16.603Z,983.45
2022-12-29T11:57:16.567Z,983.39
2022-12-29T11:58:16.557Z,983.42
2022-12-29T11:59:16.578Z,983.46
2022-12-29T12:00:16.548Z,983.46
2022-12-29T12:01:16.555Z,983.41
2022-12-29T12:02:16.727Z,983.37
2022-12-29T12:03:16.612Z,983.41
2022-12-29T12:04:16.632Z,983.44
2022-12-29T12:05:16.501Z,983.31
2022-12-29T12:06:16.540Z,983.46
2022-12-29T12:07:16.532Z,983.42
2022-12-29T12:08:20.694Z,983.40
2022-12-29T12:09:17.493Z,983.41
2022-12-29T12:10:16.474Z,983.33
2022-12-29T12:11:16.487Z,983.26
2022-12-29T12:12:16.470Z,983.32
2022-12-29T12:13:16.562Z,983.37
2022-12-29T12:14:16.442Z,983.30
2022-12-29T12:15:16.459Z,983.45
2022-12-29T12:16:16.511Z,983.32
2022-12-29T12:17:16.445Z,983.32
2022-12-29T12:18:16.441Z,983.32
2022-12-29T12:19:16.441Z,983.31
2022-12-29T12:20:16.548Z,983.34
2022-12-29T12:21:16.407Z,983.35
2022-12-29T12:22:16.395Z,983.30
2022-12-29T12:23:16.428Z,983.35
2022-12-29T12:24:16.454Z,983.34
2022-12-29T12:25:16.388Z,983.39
2022-12-29T12:26:16.370Z,983.45
2022-12-29T12:27:16.353Z,983.36
2022-12-29T12:28:16.342Z,983.42